Time;durP1;ratioP1;P1;durP2;ratioP2;P2;SDS_P1;SDS_P2;PMS_P1;PMS_P2;Temp;Humidity;BMP_temperature;BMP_pressure;BME280_temperature;BME280_humidity;BME280_pressure;Samples;Min_cycle;Max_cycle;Signal;HPM_P1;HPM_P2
2023/08/03 00:00:30;;;;;;;6.67;2.27;;;16.50;99.90;;;;;;5381381;23;656580;-72
2023/08/03 00:03:19;;;;;;;3.27;2.10;;;16.60;99.90;;;;;;5358632;23;656788;-72
2023/08/03 00:06:06;;;;;;;3.73;1.90;;;16.60;99.90;;;;;;5375878;23;656928;-72
2023/08/03 00:08:53;;;;;;;4.73;2.10;;;16.60;99.90;;;;;;5351789;23;656966;-72
2023/08/03 00:11:40;;;;;;;6.40;2.40;;;16.70;99.90;;;;;;5376352;23;657206;-72
2023/08/03 00:14:27;;;;;;;4.90;2.40;;;16.70;99.90;;;;;;5353835;23;656904;-72
2023/08/03 00:17:15;;;;;;;3.67;2.10;;;16.80;99.90;;;;;;5381357;23;656681;-73
2023/08/03 00:20:05;;;;;;;4.50;2.20;;;16.90;99.90;;;;;;5374823;23;657083;-72
2023/08/03 00:22:52;;;;;;;5.63;2.10;;;16.90;99.90;;;;;;5371850;23;656778;-72
2023/08/03 00:25:40;;;;;;;7.73;2.10;;;17.00;99.90;;;;;;5381939;23;657777;-72
2023/08/03 00:28:27;;;;;;;3.43;2.13;;;17.00;99.90;;;;;;5375966;23;656828;-71
2023/08/03 00:31:14;;;;;;;7.90;2.03;;;17.00;99.90;;;;;;5354032;23;656540;-72
2023/08/03 00:34:01;;;;;;;4.37;2.13;;;17.00;99.90;;;;;;5373827;23;656476;-72
2023/08/03 00:36:50;;;;;;;7.07;2.33;;;17.00;99.90;;;;;;5353617;23;656988;-72
2023/08/03 00:39:37;;;;;;;7.67;2.00;;;17.00;99.90;;;;;;5371727;23;657142;-72
2023/08/03 00:42:25;;;;;;;5.87;2.20;;;17.00;99.90;;;;;;5380720;23;657361;-72
2023/08/03 00:45:12;;;;;;;9.53;2.10;;;16.90;99.90;;;;;;5374734;23;656434;-72
2023/08/03 00:47:59;;;;;;;7.33;2.17;;;16.90;99.90;;;;;;5348074;23;658312;-72
2023/08/03 00:50:46;;;;;;;5.53;2.27;;;16.90;99.90;;;;;;5376886;23;656498;-72
2023/08/03 00:53:35;;;;;;;6.20;2.40;;;16.90;99.90;;;;;;5351766;23;657183;-72
2023/08/03 00:56:22;;;;;;;6.67;2.07;;;16.90;99.90;;;;;;5365082;23;657110;-72
2023/08/03 00:59:11;;;;;;;8.90;2.50;;;17.00;99.90;;;;;;5380815;23;657254;-72
2023/08/03 01:01:58;;;;;;;4.50;2.07;;;17.00;99.90;;;;;;5352636;23;656749;-72
2023/08/03 01:04:45;;;;;;;3.40;2.00;;;17.00;99.90;;;;;;5375603;23;657736;-72
2023/08/03 01:07:34;;;;;;;3.57;2.13;;;17.00;99.90;;;;;;5366038;23;656637;-72
2023/08/03 01:10:22;;;;;;;4.77;2.00;;;17.00;99.90;;;;;;5376089;23;657090;-72
2023/08/03 01:13:10;;;;;;;6.73;2.23;;;17.00;99.90;;;;;;5347999;23;656920;-74
2023/08/03 01:15:59;;;;;;;9.33;2.40;;;17.00;99.90;;;;;;5372456;23;656789;-73
2023/08/03 01:18:46;;;;;;;6.37;2.33;;;17.00;99.90;;;;;;5376512;23;656689;-73
2023/08/03 01:21:34;;;;;;;5.77;2.07;;;17.00;99.90;;;;;;5352839;23;656969;-73
2023/08/03 01:24:22;;;;;;;4.63;2.00;;;17.00;99.90;;;;;;5376320;23;657208;-73
2023/08/03 01:27:09;;;;;;;13.50;2.38;;;17.00;99.90;;;;;;5352947;23;657214;-74
2023/08/03 01:29:57;;;;;;;2.87;2.07;;;17.00;99.90;;;;;;5373635;23;657422;-73
2023/08/03 01:32:44;;;;;;;5.97;2.50;;;17.00;99.90;;;;;;5353568;23;657877;-73
2023/08/03 01:35:31;;;;;;;3.87;2.30;;;17.00;99.90;;;;;;5375794;23;657841;-73
2023/08/03 01:38:18;;;;;;;5.00;2.20;;;17.00;99.90;;;;;;5352437;23;656890;-73
2023/08/03 01:41:07;;;;;;;7.13;2.10;;;17.00;99.90;;;;;;5375787;23;657487;-73
2023/08/03 01:44:18;;;;;;;3.83;2.00;;;17.00;99.90;;;;;;5347686;23;657920;-72
2023/08/03 01:47:05;;;;;;;4.27;2.07;;;17.00;99.90;;;;;;5347413;23;657900;-74
2023/08/03 01:49:52;;;;;;;7.38;2.33;;;17.00;99.90;;;;;;5352579;23;656383;-74
2023/08/03 01:52:40;;;;;;;6.17;2.20;;;17.00;99.90;;;;;;5381105;23;657393;-74
2023/08/03 01:55:27;;;;;;;7.77;2.20;;;16.90;99.90;;;;;;5377518;23;656877;-72
2023/08/03 01:58:15;;;;;;;6.40;2.07;;;16.90;99.90;;;;;;5348738;23;658408;-74
2023/08/03 02:01:03;;;;;;;4.50;1.90;;;16.80;99.90;;;;;;5353734;23;657152;-74
2023/08/03 02:03:50;;;;;;;5.83;2.00;;;16.90;99.90;;;;;;5377301;23;658028;-73
2023/08/03 02:06:38;;;;;;;6.77;2.03;;;16.90;99.90;;;;;;5366535;23;656754;-73
2023/08/03 02:09:25;;;;;;;13.97;2.47;;;16.90;99.90;;;;;;5376577;23;657951;-73
2023/08/03 02:12:12;;;;;;;8.33;1.83;;;16.90;99.90;;;;;;5365685;23;657586;-73
2023/08/03 02:15:01;;;;;;;3.90;1.77;;;17.00;99.90;;;;;;5381617;23;657809;-73
2023/08/03 02:17:48;;;;;;;5.97;2.00;;;17.00;99.90;;;;;;5354787;23;656755;-73
2023/08/03 02:20:35;;;;;;;9.23;2.20;;;17.00;99.90;;;;;;5376915;23;657339;-73
2023/08/03 02:23:23;;;;;;;4.83;2.00;;;17.10;99.90;;;;;;5353853;23;656161;-73
2023/08/03 02:26:10;;;;;;;4.13;1.90;;;17.10;99.90;;;;;;5377353;23;657972;-73
2023/08/03 02:28:57;;;;;;;7.53;2.03;;;17.10;99.90;;;;;;5370902;23;656755;-73
2023/08/03 02:31:46;;;;;;;7.47;2.13;;;17.10;99.90;;;;;;5381809;23;656832;-73
2023/08/03 02:34:33;;;;;;;7.40;1.80;;;17.00;99.90;;;;;;5351132;23;657173;-73
2023/08/03 02:37:20;;;;;;;7.23;1.93;;;17.00;99.90;;;;;;5374747;23;658064;-73
2023/08/03 02:40:08;;;;;;;8.03;2.20;;;17.00;99.90;;;;;;5352696;23;656765;-74
2023/08/03 02:42:56;;;;;;;10.20;1.97;;;17.00;99.90;;;;;;5375815;23;658500;-73
2023/08/03 02:45:43;;;;;;;9.27;2.13;;;17.10;99.90;;;;;;5352231;23;657381;-73
2023/08/03 02:48:32;;;;;;;2.70;2.03;;;17.10;99.90;;;;;;5377385;23;658272;-73
2023/08/03 02:51:19;;;;;;;3.83;2.23;;;17.10;99.90;;;;;;5353201;23;656535;-73
2023/08/03 02:54:06;;;;;;;6.00;1.83;;;17.20;99.90;;;;;;5375993;23;657085;-73
2023/08/03 02:56:53;;;;;;;5.53;1.80;;;17.20;99.90;;;;;;5353938;23;656453;-73
2023/08/03 02:59:40;;;;;;;4.33;1.90;;;17.20;99.90;;;;;;5376512;23;658025;-73
2023/08/03 03:02:27;;;;;;;4.10;2.00;;;17.30;99.90;;;;;;5352343;23;656503;-73
2023/08/03 03:05:16;;;;;;;6.33;1.90;;;17.30;99.90;;;;;;5376156;23;658488;-73
2023/08/03 03:08:04;;;;;;;2.57;1.90;;;17.30;99.90;;;;;;5352284;23;657158;-73
2023/08/03 03:10:51;;;;;;;2.77;2.00;;;17.40;99.90;;;;;;5376181;23;656827;-73
2023/08/03 03:13:38;;;;;;;3.30;1.83;;;17.40;99.90;;;;;;5354048;23;656994;-74
2023/08/03 03:16:26;;;;;;;6.17;1.73;;;17.60;99.90;;;;;;5379243;23;657020;-73
2023/08/03 03:19:13;;;;;;;5.93;1.80;;;17.90;99.90;;;;;;5351094;23;656269;-73
2023/08/03 03:22:02;;;;;;;2.50;1.80;;;18.20;99.90;;;;;;5378578;23;657181;-73
2023/08/03 03:24:49;;;;;;;4.93;2.03;;;18.40;99.90;;;;;;5349793;23;658069;-73
2023/08/03 03:27:36;;;;;;;7.93;2.00;;;18.60;99.90;;;;;;5376954;23;656286;-72
2023/08/03 03:30:24;;;;;;;4.63;2.00;;;18.70;99.90;;;;;;5354057;23;656620;-73
2023/08/03 03:33:11;;;;;;;4.90;1.80;;;18.80;99.90;;;;;;5377098;23;657384;-73
2023/08/03 03:35:58;;;;;;;3.57;1.90;;;18.80;99.90;;;;;;5353186;23;656569;-72
2023/08/03 03:38:46;;;;;;;4.10;2.03;;;18.70;99.90;;;;;;5380633;23;657210;-72
2023/08/03 03:41:34;;;;;;;5.10;1.70;;;18.70;99.90;;;;;;5352239;23;656544;-73
2023/08/03 03:44:21;;;;;;;3.83;2.00;;;18.60;99.90;;;;;;5377054;23;656617;-73
2023/08/03 03:47:08;;;;;;;4.37;2.33;;;18.60;99.90;;;;;;5352878;23;657330;-73
2023/08/03 03:49:55;;;;;;;4.23;2.30;;;18.50;99.90;;;;;;5375714;23;658018;-73
2023/08/03 03:52:42;;;;;;;2.40;1.80;;;18.50;99.90;;;;;;5352635;23;656821;-73
2023/08/03 03:55:31;;;;;;;6.63;2.90;;;18.40;99.90;;;;;;5375854;23;658193;-73
2023/08/03 03:58:18;;;;;;;6.30;2.10;;;18.30;99.90;;;;;;5352734;23;656061;-72
2023/08/03 04:01:06;;;;;;;3.13;2.27;;;18.20;99.90;;;;;;5375520;23;658144;-73
2023/08/03 04:03:53;;;;;;;4.40;2.50;;;18.20;99.90;;;;;;5352453;23;656681;-73
2023/08/03 04:06:40;;;;;;;7.10;2.63;;;18.20;99.90;;;;;;5375741;23;656996;-73
2023/08/03 04:09:27;;;;;;;6.00;2.57;;;18.20;99.90;;;;;;5359272;23;656545;-73
2023/08/03 04:12:16;;;;;;;4.50;2.50;;;18.20;99.90;;;;;;5374635;23;657853;-72
2023/08/03 04:15:04;;;;;;;4.03;2.47;;;18.20;99.90;;;;;;5352545;23;656913;-73
2023/08/03 04:17:51;;;;;;;4.30;2.50;;;18.30;99.90;;;;;;5375392;23;657150;-73
2023/08/03 04:20:38;;;;;;;3.63;2.30;;;18.30;99.90;;;;;;5352785;23;656399;-73
2023/08/03 04:23:26;;;;;;;5.27;2.60;;;18.40;99.90;;;;;;5374666;23;657159;-72
2023/08/03 04:26:13;;;;;;;4.70;2.30;;;18.50;99.90;;;;;;5352750;23;656593;-73
2023/08/03 04:29:02;;;;;;;3.67;2.30;;;18.50;99.90;;;;;;5364593;23;657005;-72
2023/08/03 04:31:49;;;;;;;4.27;2.70;;;18.50;99.90;;;;;;5352959;23;656406;-73
2023/08/03 04:34:36;;;;;;;8.77;2.63;;;18.60;99.90;;;;;;5375562;23;657038;-73
2023/08/03 04:37:23;;;;;;;3.37;2.40;;;18.70;99.90;;;;;;5352204;23;656483;-72
2023/08/03 04:40:11;;;;;;;3.30;2.27;;;18.70;99.90;;;;;;5377664;23;657343;-73
2023/08/03 04:42:58;;;;;;;4.13;1.90;;;18.80;99.90;;;;;;5351798;23;656950;-73
2023/08/03 04:45:46;;;;;;;3.07;2.40;;;18.90;99.90;;;;;;5380625;23;656211;-72
2023/08/03 04:48:34;;;;;;;2.90;2.17;;;19.00;99.90;;;;;;5349179;23;656292;-72
2023/08/03 04:51:21;;;;;;;3.33;2.30;;;19.00;99.90;;;;;;5375897;23;656974;-73
2023/08/03 04:54:09;;;;;;;3.10;2.30;;;19.10;99.90;;;;;;5351867;23;657161;-73
2023/08/03 04:56:56;;;;;;;3.27;2.17;;;19.10;99.90;;;;;;5375145;23;658059;-72
2023/08/03 04:59:43;;;;;;;3.87;2.37;;;19.10;99.90;;;;;;5349527;23;656505;-72
2023/08/03 05:02:32;;;;;;;4.40;1.93;;;19.20;99.90;;;;;;5374557;23;657015;-73
2023/08/03 05:05:19;;;;;;;6.43;2.40;;;19.20;99.90;;;;;;5353174;23;656368;-72
2023/08/03 05:08:06;;;;;;;4.17;2.27;;;19.20;99.90;;;;;;5374164;23;656885;-73
2023/08/03 05:10:53;;;;;;;4.70;2.00;;;19.30;99.90;;;;;;5351951;23;657043;-73
2023/08/03 05:13:40;;;;;;;6.83;2.20;;;19.30;99.90;;;;;;5375733;23;658086;-72
2023/08/03 05:16:28;;;;;;;5.23;2.50;;;19.30;99.90;;;;;;5352502;23;656498;-73
2023/08/03 05:19:17;;;;;;;3.23;2.27;;;19.30;99.90;;;;;;5379572;23;657555;-73
2023/08/03 05:22:04;;;;;;;7.47;2.33;;;19.30;99.90;;;;;;5352223;23;657450;-73
2023/08/03 05:24:52;;;;;;;3.20;2.60;;;19.30;99.90;;;;;;5374620;23;656865;-73
2023/08/03 05:27:39;;;;;;;4.03;2.30;;;19.30;99.90;;;;;;5352688;23;656704;-73
2023/08/03 05:30:26;;;;;;;5.00;2.20;;;19.20;99.90;;;;;;5374634;23;656692;-72
2023/08/03 05:33:14;;;;;;;4.30;2.47;;;19.20;99.90;;;;;;5352666;23;656593;-73
2023/08/03 05:36:03;;;;;;;4.90;2.53;;;19.30;99.90;;;;;;5374358;23;657227;-73
2023/08/03 05:38:53;;;;;;;5.10;2.80;;;19.20;99.90;;;;;;5347381;23;657083;-73
2023/08/03 05:41:41;;;;;;;3.23;2.50;;;19.20;99.90;;;;;;5348095;23;658026;-73
2023/08/03 05:44:28;;;;;;;3.47;2.47;;;19.10;99.90;;;;;;5351241;23;656693;-73
2023/08/03 05:47:17;;;;;;;7.23;3.30;;;19.10;99.90;;;;;;5375568;23;658011;-72
2023/08/03 05:50:06;;;;;;;3.33;2.30;;;19.10;99.90;;;;;;5346935;23;657787;-72
2023/08/03 05:52:54;;;;;;;3.93;2.60;;;19.00;99.90;;;;;;5352198;23;656709;-73
2023/08/03 05:55:42;;;;;;;3.63;2.70;;;18.90;99.90;;;;;;5375393;23;656849;-73
2023/08/03 05:58:29;;;;;;;7.53;3.20;;;18.80;99.90;;;;;;5352782;23;656753;-73
2023/08/03 06:01:19;;;;;;;4.23;3.20;;;18.80;99.90;;;;;;5372733;23;656615;-73
2023/08/03 06:04:06;;;;;;;5.67;3.47;;;18.80;99.90;;;;;;5346597;23;657039;-72
2023/08/03 06:06:53;;;;;;;6.43;3.03;;;18.80;99.90;;;;;;5352995;23;656214;-72
2023/08/03 06:09:42;;;;;;;7.57;3.47;;;18.80;99.90;;;;;;5366148;23;657997;-73
2023/08/03 06:12:29;;;;;;;4.97;2.53;;;18.80;99.90;;;;;;5347955;23;658305;-73
2023/08/03 06:15:16;;;;;;;3.93;2.90;;;18.70;99.90;;;;;;5375162;23;656790;-72
2023/08/03 06:18:04;;;;;;;6.30;3.30;;;18.60;99.90;;;;;;5348313;23;657078;-73
2023/08/03 06:20:53;;;;;;;5.35;3.42;;;18.50;99.90;;;;;;5375616;23;656776;-73
2023/08/03 06:23:40;;;;;;;5.53;3.23;;;18.50;99.90;;;;;;5346359;23;658560;-73
2023/08/03 06:26:31;;;;;;;11.53;3.43;;;18.50;99.90;;;;;;5358219;23;656402;-73
2023/08/03 06:29:18;;;;;;;6.83;3.20;;;18.60;99.90;;;;;;5348601;23;658017;-73
2023/08/03 06:32:06;;;;;;;5.27;3.30;;;18.60;99.90;;;;;;5375459;23;657521;-73
2023/08/03 06:34:55;;;;;;;5.10;3.20;;;18.70;99.90;;;;;;5352575;23;656928;-73
2023/08/03 06:37:42;;;;;;;9.80;3.10;;;18.60;99.90;;;;;;5365428;23;657041;-72
2023/08/03 06:40:30;;;;;;;7.03;3.20;;;18.60;99.90;;;;;;5378394;23;657267;-73
2023/08/03 06:43:18;;;;;;;4.93;3.20;;;18.60;99.90;;;;;;5376604;23;656810;-73
2023/08/03 06:46:05;;;;;;;6.00;3.80;;;18.50;99.90;;;;;;5348238;23;657657;-72
2023/08/03 06:48:53;;;;;;;6.50;3.57;;;18.50;99.90;;;;;;5351978;23;656994;-72
2023/08/03 06:51:40;;;;;;;5.00;3.30;;;18.30;99.90;;;;;;5375490;23;657997;-72
2023/08/03 06:54:28;;;;;;;7.27;4.17;;;18.30;99.90;;;;;;5365738;23;657115;-72
2023/08/03 06:57:15;;;;;;;6.33;3.60;;;18.30;99.90;;;;;;5376213;23;658167;-72
2023/08/03 07:00:05;;;;;;;8.50;4.13;;;18.30;99.90;;;;;;5353252;23;656513;-72
2023/08/03 07:02:52;;;;;;;6.93;3.27;;;18.40;99.90;;;;;;5352708;23;656723;-72
2023/08/03 07:05:40;;;;;;;7.97;3.20;;;18.40;99.90;;;;;;5378692;23;656483;-72
2023/08/03 07:08:27;;;;;;;6.73;3.53;;;18.50;99.90;;;;;;5373380;23;656660;-72
2023/08/03 07:11:14;;;;;;;4.57;3.47;;;18.40;99.90;;;;;;5351089;23;656656;-72
2023/08/03 07:14:01;;;;;;;5.63;3.20;;;18.40;99.90;;;;;;5379811;23;656692;-72
2023/08/03 07:16:50;;;;;;;5.10;3.47;;;18.50;99.90;;;;;;5351369;23;656981;-72
2023/08/03 07:19:37;;;;;;;6.23;3.20;;;18.50;99.90;;;;;;5373532;23;656442;-72
2023/08/03 07:22:25;;;;;;;8.33;3.50;;;18.50;99.90;;;;;;5378051;23;657007;-72
2023/08/03 07:25:13;;;;;;;6.87;3.70;;;18.50;99.90;;;;;;5371426;23;656638;-72
2023/08/03 07:28:00;;;;;;;6.03;4.30;;;18.60;99.90;;;;;;5378087;23;656681;-72
2023/08/03 07:30:47;;;;;;;7.13;4.37;;;18.50;99.90;;;;;;5362269;23;657151;-72
2023/08/03 07:33:36;;;;;;;5.67;3.50;;;18.50;99.90;;;;;;5378272;23;657175;-71
2023/08/03 07:36:26;;;;;;;7.53;3.53;;;18.50;99.90;;;;;;5347684;23;657812;-72
2023/08/03 07:39:13;;;;;;;6.77;3.47;;;18.40;99.90;;;;;;5349793;23;656740;-73
2023/08/03 07:42:00;;;;;;;4.57;3.47;;;18.10;99.90;;;;;;5374367;23;657244;-72
2023/08/03 07:44:47;;;;;;;5.30;3.10;;;18.20;99.90;;;;;;5350234;23;656985;-72
2023/08/03 07:47:35;;;;;;;7.33;2.93;;;18.20;99.90;;;;;;5377916;23;657049;-72
2023/08/03 07:50:23;;;;;;;3.40;2.50;;;18.20;99.90;;;;;;5373571;23;656580;-72
2023/08/03 07:53:10;;;;;;;6.23;2.70;;;18.30;99.90;;;;;;5342932;23;656675;-72
2023/08/03 07:55:57;;;;;;;3.87;2.47;;;18.40;99.90;;;;;;5350374;23;656706;-72
2023/08/03 07:58:45;;;;;;;5.53;2.07;;;18.30;99.90;;;;;;5373593;23;657919;-72
2023/08/03 08:01:32;;;;;;;4.57;2.20;;;18.30;99.90;;;;;;5361659;23;656409;-72
2023/08/03 08:04:20;;;;;;;4.43;2.47;;;18.30;99.90;;;;;;5378238;23;656703;-72
2023/08/03 08:07:09;;;;;;;3.47;2.10;;;18.40;99.90;;;;;;5372950;23;657056;-72
2023/08/03 08:09:56;;;;;;;3.33;2.13;;;18.30;99.90;;;;;;5373843;23;656362;-72
2023/08/03 08:12:43;;;;;;;3.63;2.10;;;18.40;99.90;;;;;;5350396;23;656845;-72
2023/08/03 08:15:30;;;;;;;2.87;2.07;;;18.40;99.90;;;;;;5373371;23;657130;-72
2023/08/03 08:18:17;;;;;;;3.90;2.40;;;18.40;99.90;;;;;;5349945;23;656589;-72
2023/08/03 08:21:06;;;;;;;5.77;2.30;;;18.20;99.90;;;;;;5378638;23;657200;-72
2023/08/03 08:23:54;;;;;;;3.90;2.60;;;18.10;99.90;;;;;;5348196;23;656847;-72
2023/08/03 08:26:42;;;;;;;3.93;2.47;;;18.20;99.90;;;;;;5378580;23;656188;-72
2023/08/03 08:29:29;;;;;;;4.07;2.70;;;18.30;99.90;;;;;;5350107;23;656337;-72
2023/08/03 08:32:16;;;;;;;3.77;2.57;;;18.30;99.90;;;;;;5378523;23;655874;-71
2023/08/03 08:35:04;;;;;;;4.13;2.57;;;18.30;99.90;;;;;;5348237;23;656724;-72
2023/08/03 08:37:51;;;;;;;4.40;3.37;;;18.40;99.90;;;;;;5372747;23;657215;-72
2023/08/03 08:40:41;;;;;;;5.00;3.10;;;18.30;99.90;;;;;;5345434;23;656750;-72
2023/08/03 08:43:28;;;;;;;4.70;2.83;;;18.30;99.90;;;;;;5349782;23;656383;-72
2023/08/03 08:46:16;;;;;;;5.10;2.77;;;18.30;99.90;;;;;;5372913;23;657523;-72
2023/08/03 08:49:03;;;;;;;8.23;2.90;;;18.30;99.90;;;;;;5349754;23;656712;-72
2023/08/03 08:51:53;;;;;;;7.73;3.67;;;18.40;99.90;;;;;;5371094;23;656274;-72
2023/08/03 08:54:40;;;;;;;6.20;2.90;;;18.50;99.90;;;;;;5344502;23;657868;-72
2023/08/03 08:57:29;;;;;;;6.07;3.60;;;18.40;99.90;;;;;;5349923;23;656857;-71
2023/08/03 09:00:17;;;;;;;4.67;2.87;;;18.50;99.90;;;;;;5373392;23;657220;-71
2023/08/03 09:03:04;;;;;;;5.07;2.57;;;18.60;99.90;;;;;;5350624;23;656783;-71
2023/08/03 09:05:59;;;;;;;7.63;2.30;;;18.60;99.90;;;;;;5374496;23;657619;-71
2023/08/03 09:08:51;;;;;;;3.80;2.00;;;18.70;99.90;;;;;;5350761;23;656652;-71
2023/08/03 09:11:39;;;;;;;5.50;1.97;;;18.70;99.90;;;;;;5349478;23;656392;-71
2023/08/03 09:14:27;;;;;;;6.63;3.50;;;18.70;99.90;;;;;;5371374;23;657092;-71
2023/08/03 09:17:17;;;;;;;3.07;2.20;;;18.80;99.90;;;;;;5343505;23;657922;-71
2023/08/03 09:20:06;;;;;;;5.30;2.43;;;18.80;99.90;;;;;;5346866;23;656876;-71
2023/08/03 09:22:53;;;;;;;4.27;2.80;;;18.80;99.90;;;;;;5349852;23;656670;-72
2023/08/03 09:25:51;;;;;;;3.77;2.47;;;19.00;99.90;;;;;;5374812;23;657451;-72
2023/08/03 09:28:39;;;;;;;5.60;2.43;;;19.10;99.90;;;;;;5347670;23;656611;-71
2023/08/03 09:31:27;;;;;;;4.47;2.60;;;19.10;99.90;;;;;;5372515;23;656781;-71
2023/08/03 09:34:14;;;;;;;4.03;2.50;;;19.20;99.90;;;;;;5349851;23;656707;-70
2023/08/03 09:37:02;;;;;;;4.47;2.43;;;19.30;99.90;;;;;;5377681;23;656470;-71
2023/08/03 09:39:53;;;;;;;5.70;2.83;;;19.30;99.90;;;;;;5344848;23;658322;-71
2023/08/03 09:42:41;;;;;;;2.80;2.10;;;19.20;99.90;;;;;;5344376;23;657747;-71
2023/08/03 09:45:28;;;;;;;5.00;2.27;;;19.10;99.90;;;;;;5349874;23;656524;-72
2023/08/03 09:48:17;;;;;;;3.53;2.17;;;19.20;99.90;;;;;;5376085;23;657510;-70
2023/08/03 09:51:04;;;;;;;5.80;2.07;;;19.00;99.90;;;;;;5349533;23;657086;-71
2023/08/03 09:53:51;;;;;;;4.07;2.47;;;19.00;99.90;;;;;;5372024;23;656370;-71
2023/08/03 09:56:38;;;;;;;11.40;4.93;;;18.90;99.90;;;;;;5350133;23;656706;-71
2023/08/03 09:59:26;;;;;;;4.40;2.80;;;18.90;99.90;;;;;;5370468;23;658622;-71
2023/08/03 10:02:14;;;;;;;4.93;2.10;;;19.00;99.90;;;;;;5348159;23;656533;-71
2023/08/03 10:05:03;;;;;;;5.70;1.70;;;19.00;99.90;;;;;;5372425;23;657561;-72
2023/08/03 10:08:00;;;;;;;3.73;1.90;;;19.00;99.90;;;;;;5344632;23;657725;-71
2023/08/03 10:10:48;;;;;;;4.37;1.90;;;19.00;99.90;;;;;;5347429;23;657227;-72
2023/08/03 10:13:36;;;;;;;3.53;1.90;;;19.00;99.90;;;;;;5372806;23;657816;-73
2023/08/03 10:16:23;;;;;;;2.70;1.90;;;19.10;99.90;;;;;;5350995;23;657336;-73
2023/08/03 10:19:10;;;;;;;4.93;1.90;;;19.00;99.90;;;;;;5373928;23;658084;-72
2023/08/03 10:21:59;;;;;;;4.00;2.13;;;18.90;99.90;;;;;;5356601;23;657553;-73
2023/08/03 10:25:16;;;;;;;4.03;1.77;;;18.80;99.90;;;;;;5379308;23;656642;-72
2023/08/03 10:28:13;;;;;;;2.50;2.00;;;18.80;99.90;;;;;;5318542;23;656612;-73
2023/08/03 10:31:10;;;;;;;5.27;2.20;;;18.80;99.90;;;;;;5346843;23;656997;-73
2023/08/03 10:34:15;;;;;;;4.20;2.30;;;18.60;99.90;;;;;;5323390;23;657142;-72
2023/08/03 10:37:04;;;;;;;3.70;2.30;;;18.60;99.90;;;;;;5322483;23;657133;-73
2023/08/03 10:39:53;;;;;;;3.87;2.33;;;18.50;99.90;;;;;;5373762;23;657372;-72
2023/08/03 10:42:40;;;;;;;3.73;2.07;;;18.40;99.90;;;;;;5346019;23;656608;-73
2023/08/03 10:45:29;;;;;;;6.37;2.73;;;18.40;99.90;;;;;;5350111;23;657098;-73
2023/08/03 10:48:29;;;;;;;5.37;2.20;;;18.30;99.90;;;;;;5368825;23;657112;-72
2023/08/03 10:51:16;;;;;;;4.53;2.20;;;18.30;99.90;;;;;;5345488;23;657141;-72
2023/08/03 10:54:05;;;;;;;5.30;2.33;;;18.30;99.90;;;;;;5349960;23;656286;-72
2023/08/03 10:57:01;;;;;;;3.27;2.13;;;18.30;99.90;;;;;;5362229;23;656653;-72
2023/08/03 10:59:49;;;;;;;6.47;2.67;;;18.30;99.90;;;;;;5319400;23;657051;-72
2023/08/03 11:02:37;;;;;;;7.00;2.40;;;18.20;99.90;;;;;;5374451;23;656224;-72
2023/08/03 11:05:24;;;;;;;3.87;2.30;;;18.20;99.90;;;;;;5352457;23;657333;-72
2023/08/03 11:08:12;;;;;;;4.43;2.63;;;18.10;99.90;;;;;;5374532;23;656881;-72
2023/08/03 11:11:01;;;;;;;5.67;2.20;;;18.10;99.90;;;;;;5351088;23;657368;-72
2023/08/03 11:13:48;;;;;;;3.37;2.23;;;18.00;99.90;;;;;;5351009;23;656931;-72
2023/08/03 11:16:35;;;;;;;5.17;2.37;;;18.00;99.90;;;;;;5374000;23;657631;-72
2023/08/03 11:19:23;;;;;;;5.33;2.57;;;17.90;99.90;;;;;;5351020;23;656218;-73
2023/08/03 11:22:11;;;;;;;6.10;2.47;;;17.90;99.90;;;;;;5372100;23;657464;-73
2023/08/03 11:25:00;;;;;;;5.50;2.60;;;18.00;99.90;;;;;;5349245;23;656666;-72
2023/08/03 11:27:49;;;;;;;7.57;2.75;;;18.00;99.90;;;;;;5349404;23;657293;-72
2023/08/03 11:30:44;;;;;;;4.73;2.60;;;18.10;99.90;;;;;;5373989;23;655812;-72
2023/08/03 11:33:34;;;;;;;4.67;2.90;;;18.20;99.90;;;;;;5344858;23;656295;-73
2023/08/03 11:36:22;;;;;;;6.33;2.50;;;18.30;99.90;;;;;;5344882;23;656681;-73
2023/08/03 11:39:09;;;;;;;4.60;2.30;;;18.40;99.90;;;;;;5350092;23;656716;-73
2023/08/03 11:41:57;;;;;;;6.53;3.10;;;18.50;99.90;;;;;;5369768;23;657467;-72
2023/08/03 11:44:47;;;;;;;6.90;3.27;;;18.60;99.90;;;;;;5346304;23;658050;-73
2023/08/03 11:47:44;;;;;;;5.70;3.23;;;18.70;99.90;;;;;;5349678;23;657290;-73
2023/08/03 11:50:31;;;;;;;7.20;2.77;;;18.90;99.90;;;;;;5346323;23;657068;-73
2023/08/03 11:53:24;;;;;;;5.57;2.67;;;19.00;99.90;;;;;;5344902;23;656221;-71
2023/08/03 11:56:11;;;;;;;4.90;2.67;;;19.00;99.90;;;;;;5345300;23;656726;-71
2023/08/03 11:58:58;;;;;;;4.60;2.60;;;19.10;99.90;;;;;;5350858;23;657067;-71
2023/08/03 12:01:46;;;;;;;6.70;2.80;;;19.10;99.90;;;;;;5373069;23;657955;-72
2023/08/03 12:04:33;;;;;;;5.93;2.63;;;19.10;99.90;;;;;;5346929;23;657392;-71
2023/08/03 12:07:21;;;;;;;6.37;2.90;;;19.10;99.90;;;;;;5378416;23;658019;-71
2023/08/03 12:10:12;;;;;;;6.47;2.73;;;19.30;99.90;;;;;;5347028;23;657190;-72
2023/08/03 12:12:59;;;;;;;4.83;2.80;;;19.30;99.90;;;;;;5346158;23;657769;-71
2023/08/03 12:15:46;;;;;;;3.97;2.70;;;19.40;99.90;;;;;;5373543;23;656524;-71
2023/08/03 12:18:35;;;;;;;5.03;2.90;;;19.50;99.90;;;;;;5350855;23;656549;-71
2023/08/03 12:21:22;;;;;;;7.87;2.80;;;19.50;99.90;;;;;;5356807;23;656534;-71
2023/08/03 12:24:10;;;;;;;6.07;3.03;;;19.50;99.90;;;;;;5376778;23;656927;-71
2023/08/03 12:26:57;;;;;;;7.03;2.70;;;19.50;99.90;;;;;;5371860;23;657119;-71
2023/08/03 12:29:44;;;;;;;7.93;2.70;;;19.60;99.90;;;;;;5345331;23;657978;-71
2023/08/03 12:32:31;;;;;;;5.77;2.80;;;19.60;99.90;;;;;;5371520;23;657333;-71
2023/08/03 12:35:20;;;;;;;4.87;2.83;;;19.50;99.90;;;;;;5349698;23;656320;-71
2023/08/03 12:38:07;;;;;;;6.27;3.17;;;19.40;99.90;;;;;;5348496;23;656839;-71
2023/08/03 12:40:55;;;;;;;4.67;3.10;;;19.50;99.90;;;;;;5371818;23;657642;-71
2023/08/03 12:43:42;;;;;;;7.47;3.07;;;19.50;99.90;;;;;;5367320;23;656636;-71
2023/08/03 12:46:30;;;;;;;5.37;3.07;;;19.50;99.90;;;;;;5377538;23;656509;-71
2023/08/03 12:49:18;;;;;;;10.70;3.27;;;19.50;99.90;;;;;;5378209;23;657974;-71
2023/08/03 12:52:08;;;;;;;6.23;2.83;;;19.50;99.90;;;;;;5344057;23;658580;-71
2023/08/03 12:54:56;;;;;;;7.90;3.37;;;19.60;99.90;;;;;;5346018;23;657607;-71
2023/08/03 12:57:43;;;;;;;6.93;2.60;;;19.70;99.90;;;;;;5349239;23;656436;-71
2023/08/03 13:00:30;;;;;;;5.43;3.00;;;19.50;99.90;;;;;;5373492;23;656740;-71
2023/08/03 13:03:18;;;;;;;4.40;2.80;;;19.60;99.90;;;;;;5349115;23;656515;-71
2023/08/03 13:06:05;;;;;;;5.57;2.47;;;19.60;99.90;;;;;;5372717;23;658213;-71
2023/08/03 13:08:54;;;;;;;7.70;3.53;;;19.70;99.90;;;;;;5353447;23;656999;-71
2023/08/03 13:11:41;;;;;;;8.37;4.00;;;19.70;99.90;;;;;;5376779;23;656521;-71
2023/08/03 13:14:28;;;;;;;9.70;4.97;;;19.70;99.90;;;;;;5350663;23;656883;-72
2023/08/03 13:17:15;;;;;;;8.53;3.47;;;19.50;99.90;;;;;;5371894;23;657595;-71
2023/08/03 13:20:03;;;;;;;5.77;2.80;;;19.40;99.90;;;;;;5349128;23;656537;-71
2023/08/03 13:22:50;;;;;;;6.10;2.73;;;19.30;99.90;;;;;;5376868;23;658121;-71
2023/08/03 13:25:39;;;;;;;7.80;3.10;;;19.20;99.90;;;;;;5349821;23;657198;-71
2023/08/03 13:28:26;;;;;;;6.57;3.23;;;19.00;99.90;;;;;;5376788;23;656290;-70
2023/08/03 13:31:13;;;;;;;11.20;3.20;;;18.90;99.90;;;;;;5350055;23;656482;-71
2023/08/03 13:34:00;;;;;;;5.93;3.20;;;19.00;99.90;;;;;;5371370;23;658396;-71
2023/08/03 13:36:48;;;;;;;7.27;3.10;;;19.10;99.90;;;;;;5350161;23;657116;-71
2023/08/03 13:39:35;;;;;;;5.93;2.80;;;19.10;99.90;;;;;;5377380;23;656683;-71
2023/08/03 13:42:24;;;;;;;5.73;2.83;;;19.10;99.90;;;;;;5366791;23;656887;-70
2023/08/03 13:45:11;;;;;;;14.90;3.37;;;19.10;99.90;;;;;;5376851;23;656546;-73
2023/08/03 13:47:59;;;;;;;6.63;3.47;;;19.20;99.90;;;;;;5346678;23;657496;-73
2023/08/03 13:50:46;;;;;;;5.90;2.50;;;19.20;99.90;;;;;;5372609;23;656558;-73
2023/08/03 13:53:33;;;;;;;5.87;3.00;;;19.30;99.90;;;;;;5351652;23;656748;-72
2023/08/03 13:56:20;;;;;;;10.70;3.13;;;19.30;99.90;;;;;;5375653;23;657186;-73
2023/08/03 13:59:09;;;;;;;8.43;3.90;;;19.30;99.90;;;;;;5347179;23;657792;-72
2023/08/03 14:01:56;;;;;;;6.53;3.80;;;19.30;99.90;;;;;;5373692;23;657043;-72
2023/08/03 14:04:43;;;;;;;9.20;3.13;;;19.30;99.90;;;;;;5349451;23;656579;-72
2023/08/03 14:07:31;;;;;;;8.80;4.33;;;19.40;99.90;;;;;;5372218;23;657987;-73
2023/08/03 14:10:18;;;;;;;11.60;4.20;;;19.40;99.90;;;;;;5351647;23;656259;-72
2023/08/03 14:13:06;;;;;;;9.30;4.30;;;19.40;99.90;;;;;;5371970;23;658509;-73
2023/08/03 14:15:54;;;;;;;6.93;3.40;;;19.50;99.90;;;;;;5351988;23;656322;-72
2023/08/03 14:18:41;;;;;;;10.43;4.10;;;19.50;99.90;;;;;;5378324;23;656888;-73
2023/08/03 14:21:28;;;;;;;12.20;4.20;;;19.60;99.90;;;;;;5350204;23;657815;-72